Time;durP1;ratioP1;P1;durP2;ratioP2;P2;SDS_P1;SDS_P2;PMS_P1;PMS_P2;Temp;Humidity;BMP_temperature;BMP_pressure;BME280_temperature;BME280_humidity;BME280_pressure;Samples;Min_cycle;Max_cycle;Signal;HPM_P1;HPM_P2
2022/09/02 00:01:55;;;;;;;32.30;12.23;;;;;;;11.11;74.05;99050.94;1622295;88;25703;-58
2022/09/02 00:04:25;;;;;;;42.33;16.50;;;;;;;11.12;73.99;99052.55;1622477;88;28271;-59
2022/09/02 00:06:53;;;;;;;26.35;10.53;;;;;;;11.12;73.92;99049.25;1622600;88;26092;-58
2022/09/02 00:09:23;;;;;;;18.87;7.80;;;;;;;11.12;74.12;99045.69;1622694;88;25641;-59
2022/09/02 00:11:51;;;;;;;16.50;7.75;;;;;;;11.12;74.20;99045.69;1622670;88;25711;-58
2022/09/02 00:14:26;;;;;;;16.87;6.30;;;;;;;11.13;74.18;99045.94;1622595;88;25635;-59
2022/09/02 00:16:52;;;;;;;10.95;5.40;;;;;;;11.06;74.34;99047.73;1622609;88;28453;-58
2022/09/02 00:19:23;;;;;;;12.88;5.25;;;;;;;11.08;74.29;99039.20;1622443;88;25625;-58
2022/09/02 00:21:52;;;;;;;13.38;6.22;;;;;;;11.10;74.57;99041.06;1622343;87;25526;-58
2022/09/02 00:24:19;;;;;;;14.28;6.45;;;;;;;11.08;74.54;99037.83;1622299;88;27062;-57
2022/09/02 00:26:46;;;;;;;15.98;7.30;;;;;;;11.07;74.46;99037.56;1622871;88;25670;-57
2022/09/02 00:29:14;;;;;;;12.20;5.90;;;;;;;11.03;74.57;99033.27;1622894;88;28068;-57
2022/09/02 00:31:43;;;;;;;16.17;5.92;;;;;;;10.95;74.72;99031.23;1622141;88;25667;-57
2022/09/02 00:34:10;;;;;;;12.78;5.92;;;;;;;10.91;74.76;99029.11;1622533;88;25681;-57
2022/09/02 00:36:37;;;;;;;11.70;5.28;;;;;;;10.81;74.91;99030.70;1622585;88;25853;-59
2022/09/02 00:39:07;;;;;;;10.90;4.58;;;;;;;10.80;75.08;99024.98;1622678;88;25517;-57
2022/09/02 00:41:36;;;;;;;9.90;4.33;;;;;;;10.79;75.15;99021.41;1631824;87;27572;-57
2022/09/02 00:44:13;;;;;;;8.95;4.60;;;;;;;10.75;75.10;99026.44;1636309;87;25832;-57
2022/09/02 00:46:40;;;;;;;8.40;4.00;;;;;;;10.65;75.06;99032.95;1636439;87;25520;-59
2022/09/02 00:49:29;;;;;;;8.08;4.17;;;;;;;10.58;75.32;99027.88;1636568;87;25851;-57
2022/09/02 00:52:06;;;;;;;5.70;3.60;;;;;;;10.50;75.42;99023.09;1636440;87;25704;-57
2022/09/02 00:54:38;;;;;;;7.28;4.08;;;;;;;10.42;75.60;99027.31;1635812;87;27511;-57
2022/09/02 00:57:10;;;;;;;6.40;3.70;;;;;;;10.41;76.03;99024.33;1636423;87;25853;-58
2022/09/02 00:59:51;;;;;;;7.37;3.65;;;;;;;10.47;75.95;99020.41;1636493;87;25478;-57
2022/09/02 01:02:18;;;;;;;7.47;3.33;;;;;;;10.51;75.59;99019.25;1636601;87;25705;-58
2022/09/02 01:04:45;;;;;;;5.67;3.67;;;;;;;10.46;75.63;99019.34;1636278;87;25501;-58
2022/09/02 01:07:12;;;;;;;6.05;3.65;;;;;;;10.45;75.97;99017.70;1636343;87;27555;-58
2022/09/02 01:09:39;;;;;;;6.40;3.52;;;;;;;10.42;75.72;99019.92;1636150;87;25649;-57
2022/09/02 01:12:07;;;;;;;6.95;3.67;;;;;;;10.33;76.09;99011.36;1636324;87;25512;-58
2022/09/02 01:14:34;;;;;;;6.10;3.72;;;;;;;10.37;76.25;99019.21;1636320;87;26614;-58
2022/09/02 01:17:01;;;;;;;6.08;4.00;;;;;;;10.31;76.32;99014.40;1636606;87;25705;-60
2022/09/02 01:19:44;;;;;;;6.62;3.83;;;;;;;10.26;76.20;99015.84;1636389;87;27401;-58
2022/09/02 01:22:28;;;;;;;7.60;3.70;;;;;;;10.18;76.45;99024.20;1636311;87;25709;-58
2022/09/02 01:24:58;;;;;;;9.03;4.55;;;;;;;10.10;76.66;99017.50;1636408;87;25524;-59
2022/09/02 01:27:26;;;;;;;8.43;4.17;;;;;;;10.08;76.67;99014.81;1612444;87;32408;-58
2022/09/02 01:29:56;;;;;;;8.25;4.28;;;;;;;10.08;76.53;99013.45;1636370;87;25431;-58
2022/09/02 01:32:24;;;;;;;7.60;4.25;;;;;;;10.00;76.64;99017.14;1636611;87;27407;-57
2022/09/02 01:34:51;;;;;;;8.05;3.80;;;;;;;9.89;76.76;99011.58;1636320;87;25813;-58
2022/09/02 01:37:19;;;;;;;7.37;4.15;;;;;;;9.79;77.04;99018.05;1636250;87;25636;-58
2022/09/02 01:39:45;;;;;;;6.15;3.83;;;;;;;9.73;77.36;99021.41;1636010;87;25770;-58
2022/09/02 01:42:12;;;;;;;6.03;3.72;;;;;;;9.77;77.49;99021.09;1616293;87;25622;-57
2022/09/02 01:44:42;;;;;;;10.43;6.20;;;;;;;9.81;77.44;99011.70;1610680;89;27516;-58
2022/09/02 01:47:06;;;;;;;12.07;6.65;;;;;;;9.86;77.54;99017.65;1610707;89;25631;-58
2022/09/02 01:49:32;;;;;;;9.60;5.85;;;;;;;9.93;77.47;99017.27;1611125;88;25476;-57
2022/09/02 01:51:58;;;;;;;8.98;4.80;;;;;;;9.93;77.35;99011.80;1611077;89;26450;-57
2022/09/02 01:54:24;;;;;;;6.80;4.33;;;;;;;9.89;77.35;99013.77;1611136;88;25773;-57
2022/09/02 01:56:50;;;;;;;9.53;4.85;;;;;;;9.94;77.48;99010.67;1611060;89;27847;-57
2022/09/02 01:59:17;;;;;;;8.18;3.67;;;;;;;9.95;77.41;99015.03;1611006;89;25897;-57
2022/09/02 02:01:44;;;;;;;5.72;3.80;;;;;;;9.82;78.33;99008.42;1610951;89;25698;-57
2022/09/02 02:04:13;;;;;;;6.22;4.37;;;;;;;9.72;78.24;99003.92;1610725;89;27402;-58
2022/09/02 02:06:43;;;;;;;5.15;3.65;;;;;;;9.75;78.45;99006.05;1611063;89;25706;-57
2022/09/02 02:09:11;;;;;;;7.83;3.30;;;;;;;9.82;78.14;99003.77;1611192;87;27644;-57
2022/09/02 02:11:38;;;;;;;5.92;3.72;;;;;;;9.78;77.98;98995.87;1610936;89;26013;-57
2022/09/02 02:14:05;;;;;;;4.85;3.20;;;;;;;9.72;78.08;98991.60;1611007;89;25674;-57
2022/09/02 02:16:32;;;;;;;4.40;3.27;;;;;;;9.64;78.34;98994.47;1611106;89;25650;-57
2022/09/02 02:18:59;;;;;;;4.30;3.27;;;;;;;9.59;78.57;98999.50;1611050;88;25654;-57
2022/09/02 02:21:25;;;;;;;8.15;3.22;;;;;;;9.56;78.83;98991.88;1611293;88;27736;-57
2022/09/02 02:23:52;;;;;;;5.35;3.40;;;;;;;9.56;78.67;98993.25;1610907;89;25493;-57
2022/09/02 02:26:19;;;;;;;6.08;3.80;;;;;;;9.54;78.92;98992.73;1611077;89;25669;-57
2022/09/02 02:28:45;;;;;;;4.95;3.25;;;;;;;9.59;78.70;98994.56;1610754;89;27834;-57
2022/09/02 02:31:11;;;;;;;5.08;3.42;;;;;;;9.56;78.42;99003.37;1611136;89;25703;-57
2022/09/02 02:33:38;;;;;;;4.90;3.08;;;;;;;9.54;78.49;99000.39;1611083;89;27503;-57
2022/09/02 02:36:07;;;;;;;5.67;3.12;;;;;;;9.51;78.40;99000.98;1610787;89;25504;-57
2022/09/02 02:38:35;;;;;;;4.00;3.20;;;;;;;9.48;78.62;99002.13;1611093;89;25514;-57
2022/09/02 02:41:03;;;;;;;4.85;3.12;;;;;;;9.51;78.57;98998.25;1610931;88;25770;-57
2022/09/02 02:43:29;;;;;;;6.30;3.00;;;;;;;9.57;78.47;99000.34;1611076;89;25424;-57
2022/09/02 02:45:55;;;;;;;4.08;3.62;;;;;;;9.58;78.26;99006.05;1610778;89;27392;-59
2022/09/02 02:48:22;;;;;;;5.60;3.05;;;;;;;9.58;78.32;98999.22;1610669;89;27240;-57
2022/09/02 02:50:48;;;;;;;4.28;2.87;;;;;;;9.60;78.31;98996.19;1611036;89;25725;-56
2022/09/02 02:53:16;;;;;;;4.03;2.90;;;;;;;9.56;78.32;98996.53;1611250;89;25727;-57
2022/09/02 02:55:42;;;;;;;4.62;3.00;;;;;;;9.49;78.20;98988.15;1610696;89;25445;-57
2022/09/02 02:58:08;;;;;;;5.92;3.00;;;;;;;9.45;78.45;98991.23;1611071;89;28140;-57
2022/09/02 03:00:35;;;;;;;5.60;3.00;;;;;;;9.46;78.67;98993.39;1610649;89;25462;-58
2022/09/02 03:03:06;;;;;;;4.17;3.00;;;;;;;9.47;78.75;98986.25;1591404;88;25783;-56
2022/09/02 03:05:36;;;;;;;4.75;3.40;;;;;;;9.51;78.53;98989.22;1610981;89;25676;-58
2022/09/02 03:08:05;;;;;;;7.15;3.47;;;;;;;9.43;78.19;98983.87;1610823;89;25716;-58
2022/09/02 03:10:33;;;;;;;5.42;3.37;;;;;;;9.40;78.67;98984.46;1610968;89;27366;-58
2022/09/02 03:13:02;;;;;;;8.15;4.90;;;;;;;9.39;78.63;98986.38;1610864;89;25937;-57
2022/09/02 03:15:31;;;;;;;10.60;6.03;;;;;;;9.40;78.58;98987.20;1610997;89;25528;-58
2022/09/02 03:17:58;;;;;;;7.62;5.08;;;;;;;9.41;78.63;98981.42;1611085;89;25700;-57
2022/09/02 03:20:25;;;;;;;13.13;8.18;;;;;;;9.44;78.47;98984.69;1610883;89;25699;-58
2022/09/02 03:22:55;;;;;;;20.75;11.45;;;;;;;9.40;78.50;98992.12;1610731;89;27512;-57
2022/09/02 03:25:24;;;;;;;16.52;8.13;;;;;;;9.39;78.46;98983.64;1611213;89;25745;-57
2022/09/02 03:27:49;;;;;;;13.43;6.15;;;;;;;9.40;78.61;98983.91;1610969;89;25458;-57
2022/09/02 03:30:21;;;;;;;11.30;6.12;;;;;;;9.44;78.60;98980.59;1610761;89;25677;-57
2022/09/02 03:32:47;;;;;;;12.55;5.65;;;;;;;9.46;78.45;98978.34;1611043;89;25690;-57
2022/09/02 03:35:17;;;;;;;6.70;3.90;;;;;;;9.49;78.35;98980.48;1610731;89;27453;-57
2022/09/02 03:37:45;;;;;;;8.27;4.43;;;;;;;9.47;78.38;98982.16;1611098;89;25513;-57
2022/09/02 03:40:16;;;;;;;7.70;4.72;;;;;;;9.48;78.43;98980.23;1610758;89;25525;-58
2022/09/02 03:42:42;;;;;;;6.42;4.17;;;;;;;9.51;78.37;98987.30;1619349;87;26463;-58
2022/09/02 03:45:10;;;;;;;6.22;3.95;;;;;;;9.46;78.00;98984.64;1622843;88;25599;-57
2022/09/02 03:47:42;;;;;;;7.22;3.55;;;;;;;9.40;78.33;98988.02;1622615;88;27449;-57
2022/09/02 03:50:06;;;;;;;4.85;3.50;;;;;;;9.38;78.41;98999.80;1622225;87;25457;-57
2022/09/02 03:52:32;;;;;;;5.37;4.12;;;;;;;9.28;78.46;98997.23;1622292;88;25655;-58
2022/09/02 03:54:58;;;;;;;7.17;3.33;;;;;;;9.16;78.74;98994.95;1622287;88;25787;-57
2022/09/02 03:57:26;;;;;;;3.92;3.10;;;;;;;9.14;78.95;98999.89;1622795;88;25512;-57
2022/09/02 03:59:53;;;;;;;6.25;3.50;;;;;;;9.11;78.94;99000.48;1622418;88;28432;-57
2022/09/02 04:02:19;;;;;;;5.40;4.00;;;;;;;9.07;79.03;98998.09;1622719;88;25480;-57
2022/09/02 04:04:45;;;;;;;7.65;3.85;;;;;;;9.04;79.03;98998.12;1622386;88;25655;-57
2022/09/02 04:07:11;;;;;;;6.97;3.40;;;;;;;8.98;79.18;98999.31;1622267;88;25731;-58
2022/09/02 04:09:38;;;;;;;5.37;3.80;;;;;;;8.97;79.38;98998.48;1622292;88;25504;-58
2022/09/02 04:14:58;;;;;;;8.35;3.72;;;;;;;8.91;79.54;98994.19;1572850;91;25550;-58
2022/09/02 04:17:24;;;;;;;5.00;3.70;;;;;;;8.87;79.93;99000.00;1597080;89;25525;-58
2022/09/02 04:19:55;;;;;;;4.58;3.83;;;;;;;8.84;80.11;98996.48;1596606;89;25722;-61
2022/09/02 04:22:21;;;;;;;6.15;3.27;;;;;;;8.83;80.28;98994.84;1600943;89;25775;-57
2022/09/02 04:24:48;;;;;;;6.05;3.47;;;;;;;8.83;80.29;98999.76;1600903;89;27566;-59
2022/09/02 04:27:14;;;;;;;4.62;3.22;;;;;;;8.84;80.37;98996.48;1589882;90;25572;-58
2022/09/02 04:29:40;;;;;;;4.80;3.37;;;;;;;8.84;80.34;98994.55;1564092;91;25751;-57
2022/09/02 04:32:07;;;;;;;5.60;3.80;;;;;;;8.83;80.48;98996.20;1589632;90;25730;-57
2022/09/02 04:34:32;;;;;;;4.72;3.52;;;;;;;8.83;80.62;98995.66;1563862;91;25857;-57
2022/09/02 04:36:58;;;;;;;4.92;3.35;;;;;;;8.85;80.91;99000.29;1589736;90;29536;-57
2022/09/02 04:39:24;;;;;;;5.65;3.45;;;;;;;8.85;81.06;98997.56;1563643;91;25582;-57
2022/09/02 04:41:52;;;;;;;5.87;3.47;;;;;;;8.87;81.35;98999.42;1590063;90;25549;-57
2022/09/02 04:44:18;;;;;;;5.47;3.83;;;;;;;8.93;81.41;99004.29;1563992;91;26361;-58
2022/09/02 04:46:45;;;;;;;9.60;3.40;;;;;;;9.01;81.53;99004.19;1589992;90;25569;-58
2022/09/02 04:49:12;;;;;;;5.37;3.55;;;;;;;9.09;81.62;98993.94;1563792;91;27447;-57
2022/09/02 04:51:38;;;;;;;5.75;3.60;;;;;;;9.16;81.64;98998.48;1613812;86;25737;-57
2022/09/02 04:54:06;;;;;;;8.73;3.62;;;;;;;9.24;81.81;98994.84;1664392;86;25672;-57
2022/09/02 04:56:33;;;;;;;5.17;3.42;;;;;;;9.33;81.67;98998.53;1664028;85;25780;-57
2022/09/02 04:58:59;;;;;;;6.20;3.50;;;;;;;9.44;81.67;98997.00;1664254;86;25768;-57
2022/09/02 05:01:35;;;;;;;4.62;3.35;;;;;;;9.51;81.62;98989.22;1664534;86;27449;-57
2022/09/02 05:04:08;;;;;;;4.95;3.47;;;;;;;9.60;81.57;98989.34;1664372;86;25857;-58
2022/09/02 05:06:38;;;;;;;6.25;3.02;;;;;;;9.72;81.26;98988.87;1664228;85;25641;-58
2022/09/02 05:09:07;;;;;;;4.25;3.42;;;;;;;9.81;81.32;98990.38;1664502;85;27385;-58
2022/09/02 05:11:35;;;;;;;6.35;3.20;;;;;;;9.90;81.13;98992.11;1664127;85;25679;-59
2022/09/02 05:14:05;;;;;;;6.78;3.60;;;;;;;9.98;80.91;98992.52;1665548;85;28369;-57
2022/09/02 05:16:36;;;;;;;6.10;3.92;;;;;;;10.02;80.85;98993.56;1666541;86;25687;-58
2022/09/02 05:19:05;;;;;;;5.78;3.25;;;;;;;10.08;80.67;98992.91;1666787;86;25745;-58
2022/09/02 05:21:32;;;;;;;4.47;3.60;;;;;;;10.21;80.54;98992.11;1666694;86;25693;-58
2022/09/02 05:23:57;;;;;;;5.53;3.90;;;;;;;10.32;80.17;98988.62;1666951;86;25470;-58
2022/09/02 05:26:25;;;;;;;7.42;3.70;;;;;;;10.43;80.33;98991.97;1666445;86;27555;-58
2022/09/02 05:28:52;;;;;;;7.12;3.60;;;;;;;10.50;80.08;98993.77;1666693;86;25452;-58
2022/09/02 05:31:20;;;;;;;5.80;3.58;;;;;;;10.57;79.95;98990.63;1666467;86;25459;-58
2022/09/02 05:33:47;;;;;;;4.40;3.10;;;;;;;10.67;79.83;98986.85;1666765;86;25668;-58
2022/09/02 05:36:18;;;;;;;9.53;3.22;;;;;;;10.79;79.50;98991.26;1666581;86;25608;-58
2022/09/02 05:38:45;;;;;;;4.92;3.30;;;;;;;10.93;79.69;98983.56;1666681;86;27371;-58
2022/09/02 05:41:18;;;;;;;5.47;3.60;;;;;;;11.09;79.42;98983.22;1666850;86;26092;-58
2022/09/02 05:43:45;;;;;;;4.83;2.80;;;;;;;11.22;78.92;98982.91;1666549;86;25649;-58
2022/09/02 05:46:18;;;;;;;5.15;3.37;;;;;;;11.31;78.50;98987.13;1666391;86;25806;-57
2022/09/02 05:51:35;;;;;;;4.70;3.05;;;;;;;11.60;79.03;98984.52;1666368;86;25652;-57
2022/09/02 05:54:01;;;;;;;;;;;;;;;11.76;78.29;98990.41;1669109;86;25475;-58
2022/09/02 05:56:28;;;;;;;4.03;2.77;;;;;;;11.89;78.12;98990.89;1666539;86;25685;-57
2022/09/02 05:58:57;;;;;;;6.25;3.30;;;;;;;12.06;77.80;98985.23;1666394;86;25800;-57
2022/09/02 06:01:24;;;;;;;4.03;2.83;;;;;;;12.30;77.35;98984.89;1666500;86;25432;-57
2022/09/02 06:03:51;;;;;;;5.78;2.80;;;;;;;12.51;77.20;98989.02;1666546;86;27359;-58
2022/09/02 06:06:20;;;;;;;4.92;1.80;;;;;;;12.72;76.93;98992.56;1666283;86;25480;-58
2022/09/02 06:08:47;;;;;;;2.40;1.70;;;;;;;12.85;73.61;98991.61;1666781;86;25618;-58
2022/09/02 06:11:13;;;;;;;3.58;1.80;;;;;;;12.92;73.16;98998.00;1666407;86;25776;-58
2022/09/02 06:13:41;;;;;;;5.47;1.70;;;;;;;13.00;73.03;98996.39;1666819;85;25609;-58
2022/09/02 06:16:12;;;;;;;5.30;1.67;;;;;;;13.08;72.27;99000.29;1666682;86;27480;-58
2022/09/02 06:18:39;;;;;;;5.03;2.08;;;;;;;13.14;72.25;98998.45;1665771;85;25648;-58
2022/09/02 06:21:06;;;;;;;4.50;1.70;;;;;;;13.28;72.64;98998.30;1666610;86;25668;-58
2022/09/02 06:23:37;;;;;;;2.25;1.65;;;;;;;13.50;71.74;98997.10;1666524;86;25749;-58
2022/09/02 06:26:06;;;;;;;3.52;1.80;;;;;;;13.68;71.22;98997.30;1666548;86;25776;-58
2022/09/02 06:28:34;;;;;;;2.83;1.70;;;;;;;13.76;70.31;98993.50;1666750;86;27376;-58
2022/09/02 06:31:19;;;;;;;2.92;1.27;;;;;;;13.78;70.12;98999.48;1666526;86;25956;-58
2022/09/02 06:33:49;;;;;;;2.20;1.47;;;;;;;13.86;69.38;98997.84;1666859;86;25424;-58
2022/09/02 06:36:17;;;;;;;5.17;2.10;;;;;;;13.99;69.08;98997.42;1672139;85;26337;-58
2022/09/02 06:38:48;;;;;;;6.30;2.20;;;;;;;14.11;69.21;98996.17;1666779;86;25487;-58
2022/09/02 06:41:19;;;;;;;4.17;1.75;;;;;;;14.25;68.79;98993.77;1666747;86;33100;-58
2022/09/02 06:43:46;;;;;;;2.55;1.60;;;;;;;14.35;68.97;99001.67;1666622;86;25649;-58
2022/09/02 06:46:25;;;;;;;2.52;1.55;;;;;;;14.42;67.70;98999.76;1666457;86;25943;-60
2022/09/02 06:48:52;;;;;;;3.15;1.72;;;;;;;14.57;66.25;99001.17;1666651;86;25637;-58
2022/09/02 06:51:22;;;;;;;2.60;1.85;;;;;;;14.59;66.81;98986.46;1666354;86;25428;-58
2022/09/02 06:53:50;;;;;;;3.02;1.62;;;;;;;14.59;66.81;98986.46;1666195;85;27425;-58
2022/09/02 06:56:20;;;;;;;4.50;1.80;;;;;;;14.75;65.90;98994.17;1666551;86;25647;-58
2022/09/02 06:58:46;;;;;;;4.62;2.02;;;;;;;14.80;65.13;98998.16;1666982;86;25470;-58
2022/09/02 07:01:26;;;;;;;2.25;1.52;;;;;;;14.87;66.19;99001.19;1666665;86;25910;-58
2022/09/02 07:06:41;;;;;;;2.70;1.60;;;;;;;15.37;65.76;99000.09;1666404;86;25648;-58
2022/09/02 07:09:10;;;;;;;2.27;1.30;;;;;;;15.60;64.13;99005.84;1666864;86;25657;-62
2022/09/02 07:11:37;;;;;;;3.52;1.75;;;;;;;15.72;63.34;99003.13;1666594;86;25692;-59
2022/09/02 07:14:05;;;;;;;4.80;1.50;;;;;;;15.70;62.92;98999.07;1666110;85;25785;-62
2022/09/02 07:16:36;;;;;;;4.28;1.80;;;;;;;15.97;61.70;99000.45;1664432;86;25593;-62
2022/09/02 07:19:04;;;;;;;5.33;1.80;;;;;;;16.01;62.87;98989.52;1664526;86;27551;-63
2022/09/02 07:21:31;;;;;;;4.65;1.77;;;;;;;16.01;62.87;98989.52;1664326;86;25949;-62
2022/09/02 07:23:59;;;;;;;2.85;1.70;;;;;;;16.32;62.05;98999.83;1664397;85;25617;-61
2022/09/02 07:26:27;;;;;;;2.98;1.50;;;;;;;16.51;60.71;99002.02;1664447;85;25683;-61
2022/09/02 07:28:55;;;;;;;5.20;1.80;;;;;;;16.49;60.45;99003.74;1664679;86;25592;-62
2022/09/02 07:31:23;;;;;;;6.42;1.70;;;;;;;16.47;62.34;98999.72;1664410;86;27397;-61
2022/09/02 07:33:50;;;;;;;6.87;1.80;;;;;;;16.72;61.16;99003.27;1664434;86;25605;-59
2022/09/02 07:36:20;;;;;;;2.35;1.75;;;;;;;17.00;61.06;99003.13;1664205;86;25684;-63
2022/09/02 07:38:53;;;;;;;4.15;1.50;;;;;;;17.29;59.75;99005.40;1663865;86;25491;-61
2022/09/02 07:41:21;;;;;;;2.80;1.70;;;;;;;17.47;59.33;99006.52;1664549;86;25616;-64
2022/09/02 07:43:49;;;;;;;2.40;1.30;;;;;;;17.34;59.52;99003.78;1664361;85;27460;-61
2022/09/02 07:46:16;;;;;;;3.65;1.40;;;;;;;17.45;58.92;99008.81;1664334;86;25726;-62
2022/09/02 07:48:42;;;;;;;2.72;1.20;;;;;;;17.69;57.95;99000.98;1664289;86;25621;-61
2022/09/02 07:51:10;;;;;;;1.20;1.10;;;;;;;17.65;57.02;99000.88;1664105;86;25779;-59
2022/09/02 07:53:38;;;;;;;3.08;1.25;;;;;;;17.70;56.55;98995.66;1664616;86;25494;-61
2022/09/02 07:56:05;;;;;;;1.87;1.30;;;;;;;17.77;56.41;99000.03;1664705;86;27322;-58
2022/09/02 07:58:32;;;;;;;1.52;1.20;;;;;;;17.97;57.06;99002.93;1664267;85;25501;-58
2022/09/02 08:00:58;;;;;;;2.22;1.22;;;;;;;18.28;55.84;99003.34;1664065;86;25436;-62
2022/09/02 08:03:26;;;;;;;2.67;1.20;;;;;;;18.53;55.70;98992.04;1664110;86;26991;-63
2022/09/02 08:05:56;;;;;;;2.47;1.30;;;;;;;18.88;54.80;98996.04;1664439;85;25709;-57
2022/09/02 08:08:25;;;;;;;2.67;1.07;;;;;;;18.85;53.57;98990.60;1664449;85;27630;-58
2022/09/02 08:10:53;;;;;;;2.92;1.27;;;;;;;19.02;52.52;98995.53;1664024;85;25892;-64
2022/09/02 08:13:21;;;;;;;2.83;1.10;;;;;;;19.09;53.43;98987.98;1664104;85;25662;-59
2022/09/02 08:15:48;;;;;;;2.12;1.20;;;;;;;19.36;51.25;98990.34;1672405;85;25742;-58
2022/09/02 08:18:15;;;;;;;2.15;1.17;;;;;;;19.56;50.74;98998.09;1674436;85;25174;-58
2022/09/02 08:20:41;;;;;;;2.27;1.10;;;;;;;19.76;50.20;98991.12;1674062;85;27522;-58
2022/09/02 08:23:08;;;;;;;1.95;1.25;;;;;;;19.82;50.14;98986.06;1674134;85;25729;-58
2022/09/02 08:25:36;;;;;;;1.55;0.90;;;;;;;19.87;49.97;98991.33;1674165;85;25613;-57
2022/09/02 08:28:03;;;;;;;1.47;0.90;;;;;;;19.99;48.89;98990.34;1674161;85;25729;-60
2022/09/02 08:30:30;;;;;;;2.30;1.15;;;;;;;20.29;49.50;98995.26;1674393;85;25683;-61
2022/09/02 08:32:57;;;;;;;3.17;1.10;;;;;;;20.43;48.54;98993.31;1674137;85;27750;-60
2022/09/02 08:35:24;;;;;;;2.20;0.88;;;;;;;20.61;49.12;98994.78;1674215;85;25585;-60
2022/09/02 08:37:51;;;;;;;1.40;0.93;;;;;;;21.06;47.84;98994.47;1674301;85;25513;-57
2022/09/02 08:40:22;;;;;;;1.82;1.00;;;;;;;21.16;46.33;98988.03;1674160;85;26340;-58
2022/09/02 08:42:55;;;;;;;2.45;0.88;;;;;;;21.27;46.94;98990.95;1674292;85;25470;-58
2022/09/02 08:45:39;;;;;;;2.35;1.10;;;;;;;21.61;45.46;98992.34;1674384;85;27453;-59
2022/09/02 08:48:20;;;;;;;1.80;1.15;;;;;;;21.71;44.49;98987.27;1674027;85;25998;-61
2022/09/02 08:50:49;;;;;;;1.62;0.95;;;;;;;21.92;46.08;98988.13;1674109;85;25506;-57
2022/09/02 08:53:33;;;;;;;1.15;0.78;;;;;;;22.20;44.13;98992.38;1674544;85;26577;-63
2022/09/02 08:56:03;;;;;;;2.40;1.05;;;;;;;21.86;42.29;98982.09;1674327;85;25675;-59
2022/09/02 08:58:43;;;;;;;0.90;0.70;;;;;;;21.82;44.14;98991.02;1674598;85;27548;-60
2022/09/02 09:01:46;;;;;;;3.17;1.02;;;;;;;22.15;41.91;98980.16;1674602;85;25774;-59
2022/09/02 09:04:30;;;;;;;0.70;0.57;;;;;;;22.31;41.87;98971.55;1674241;85;25505;-59
2022/09/02 09:07:06;;;;;;;3.77;1.00;;;;;;;22.51;41.46;98974.86;1673637;85;25619;-60
2022/09/02 09:10:14;;;;;;;1.45;0.80;;;;;;;22.36;41.84;98964.19;1674261;85;25599;-58
2022/09/02 09:13:04;;;;;;;1.15;0.90;;;;;;;22.39;41.72;98963.41;1673924;85;28386;-57
2022/09/02 09:16:00;;;;;;;2.50;0.90;;;;;;;22.12;41.35;98966.39;1673782;85;25926;-58
2022/09/02 09:18:40;;;;;;;1.82;0.80;;;;;;;22.06;41.53;98959.55;1673771;85;25685;-58
2022/09/02 09:21:09;;;;;;;1.70;0.93;;;;;;;21.20;42.55;98963.79;1674422;85;25922;-59
2022/09/02 09:23:40;;;;;;;3.90;0.85;;;;;;;21.32;43.56;98952.98;1674315;85;25625;-57
2022/09/02 09:26:13;;;;;;;1.52;0.90;;;;;;;21.44;43.03;98971.43;1674406;85;27548;-57
2022/09/02 09:28:46;;;;;;;1.00;0.88;;;;;;;21.51;42.19;98960.97;1674214;85;25643;-57
2022/09/02 09:31:19;;;;;;;0.75;0.62;;;;;;;21.72;42.45;98956.21;1674306;85;25678;-57
2022/09/02 09:34:08;;;;;;;1.50;0.75;;;;;;;22.33;42.28;98948.82;1674503;85;26364;-57
2022/09/02 09:36:45;;;;;;;1.35;0.70;;;;;;;22.84;39.50;98956.97;1674221;85;25588;-57
2022/09/02 09:39:31;;;;;;;2.00;0.68;;;;;;;22.93;39.70;98947.64;1674099;85;26624;-58
2022/09/02 09:42:02;;;;;;;1.37;0.70;;;;;;;23.22;38.39;98951.74;1673376;85;25591;-57
2022/09/02 09:44:44;;;;;;;1.10;0.70;;;;;;;23.30;36.79;98947.20;1674294;85;25685;-57
2022/09/02 09:47:22;;;;;;;1.32;0.60;;;;;;;23.26;37.25;98950.56;1674493;85;25758;-58
2022/09/02 09:49:55;;;;;;;2.30;0.70;;;;;;;22.80;37.82;98951.34;1674328;85;25428;-57
2022/09/02 09:52:28;;;;;;;0.82;0.55;;;;;;;22.56;37.24;98948.57;1674431;85;27524;-57
2022/09/02 09:55:16;;;;;;;1.42;0.65;;;;;;;22.58;37.08;98940.64;1674255;85;25801;-58
2022/09/02 09:57:47;;;;;;;0.82;0.50;;;;;;;22.87;37.95;98942.22;1674508;85;25616;-57
2022/09/02 10:00:28;;;;;;;0.70;0.60;;;;;;;23.03;36.72;98931.32;1674406;85;25691;-58
2022/09/02 10:02:59;;;;;;;1.77;0.68;;;;;;;23.03;36.78;98927.91;1674102;85;25632;-58
2022/09/02 10:05:30;;;;;;;1.32;0.70;;;;;;;23.24;37.16;98931.20;1674306;85;28268;-57
2022/09/02 10:08:17;;;;;;;0.65;0.50;;;;;;;23.40;36.49;98929.50;1674340;85;25658;-58
2022/09/02 10:11:07;;;;;;;2.12;0.70;;;;;;;23.44;35.74;98924.70;1674223;85;25638;-58
2022/09/02 10:13:37;;;;;;;1.35;0.62;;;;;;;22.86;37.21;98927.23;1674726;85;25743;-58
2022/09/02 10:16:44;;;;;;;2.77;0.93;;;;;;;22.06;38.89;98931.07;1669341;85;25426;-60
2022/09/02 10:19:19;;;;;;;1.92;0.70;;;;;;;21.28;40.93;98934.84;1666350;85;27414;-58
2022/09/02 10:22:12;;;;;;;0.98;0.60;;;;;;;20.75;40.97;98930.93;1666172;85;25501;-58
2022/09/02 10:24:59;;;;;;;3.00;0.60;;;;;;;20.44;40.79;98936.45;1666487;85;25452;-60
2022/09/02 10:28:03;;;;;;;1.30;0.40;;;;;;;20.47;39.42;98925.18;1666273;85;25697;-59
2022/09/02 10:30:51;;;;;;;1.55;0.53;;;;;;;20.54;40.73;98924.47;1666667;86;25454;-58
2022/09/02 10:33:42;;;;;;;0.98;0.70;;;;;;;21.15;39.17;98922.31;1666369;86;28189;-57
2022/09/02 10:36:16;;;;;;;0.72;0.60;;;;;;;21.90;39.23;98922.94;1666271;85;25628;-58
2022/09/02 10:38:49;;;;;;;2.08;0.70;;;;;;;22.06;38.38;98922.70;1666409;86;25443;-58
2022/09/02 10:41:41;;;;;;;2.50;0.60;;;;;;;22.04;39.35;98922.27;1666632;86;25689;-59
2022/09/02 10:44:37;;;;;;;2.42;0.80;;;;;;;21.84;39.63;98925.87;1666288;85;25438;-59
2022/09/02 10:47:13;;;;;;;1.80;0.62;;;;;;;21.43;40.70;98930.80;1666182;85;28679;-58
2022/09/02 10:50:20;;;;;;;1.70;0.45;;;;;;;21.46;39.47;98918.08;1666231;86;25497;-58
2022/09/02 10:53:19;;;;;;;0.60;0.60;;;;;;;21.83;37.98;98924.28;1666338;86;25623;-58
2022/09/02 10:55:59;;;;;;;2.12;0.70;;;;;;;22.38;38.39;98915.75;1666415;86;25797;-58
2022/09/02 10:58:55;;;;;;;3.98;0.80;;;;;;;22.29;36.08;98912.49;1665798;85;25617;-58
2022/09/02 11:01:33;;;;;;;0.50;0.50;;;;;;;22.23;37.00;98904.27;1666414;86;27508;-59
2022/09/02 11:04:11;;;;;;;2.55;0.80;;;;;;;22.02;36.72;98902.92;1611090;89;25476;-59
2022/09/02 11:06:42;;;;;;;2.80;0.80;;;;;;;21.72;37.73;98905.20;1611358;89;25676;-60
2022/09/02 11:09:47;;;;;;;1.00;0.65;;;;;;;21.27;38.64;98919.28;1611204;89;28076;-59
2022/09/02 11:12:21;;;;;;;0.78;0.40;;;;;;;20.95;37.64;98909.93;1610686;89;25647;-58
2022/09/02 11:15:03;;;;;;;2.45;0.50;;;;;;;20.76;37.75;98912.25;1611555;89;27715;-57
2022/09/02 11:18:15;;;;;;;3.27;0.50;;;;;;;20.56;37.25;98912.38;1610698;89;26179;-58
2022/09/02 11:21:05;;;;;;;2.85;0.50;;;;;;;20.56;36.82;98914.55;1611308;89;25650;-59
2022/09/02 11:23:58;;;;;;;1.47;0.50;;;;;;;20.33;36.81;98909.64;1535178;93;25746;-62
2022/09/02 11:26:51;;;;;;;1.30;0.47;;;;;;;20.31;37.47;98901.66;1534912;93;25523;-62
2022/09/02 11:29:35;;;;;;;0.80;0.40;;;;;;;20.01;37.70;98902.36;1535053;93;27497;-63
2022/09/02 11:32:21;;;;;;;2.85;0.47;;;;;;;19.89;38.00;98899.19;1535204;93;25539;-62
2022/09/02 11:34:54;;;;;;;4.60;0.60;;;;;;;19.88;38.92;98905.91;1535121;93;25692;-63
2022/09/02 11:37:35;;;;;;;3.12;0.70;;;;;;;19.82;39.23;98905.42;1535233;93;25688;-63
2022/09/02 11:40:51;;;;;;;1.00;0.53;;;;;;;19.81;39.22;98905.21;1535199;93;25773;-63
2022/09/02 11:43:41;;;;;;;2.37;0.65;;;;;;;19.81;39.39;98906.60;1591073;90;27829;-63
2022/09/02 11:46:35;;;;;;;1.40;0.62;;;;;;;19.82;39.30;98909.59;1587196;89;25857;-63
2022/09/02 11:49:36;;;;;;;3.85;0.90;;;;;;;19.83;40.37;98908.41;1592025;90;25549;-61
2022/09/02 11:52:39;;;;;;;1.10;0.57;;;;;;;19.75;40.33;98913.64;1592184;90;25726;-63
2022/09/02 11:55:17;;;;;;;1.00;0.50;;;;;;;19.72;40.76;98908.81;1590964;90;25746;-63
2022/09/02 11:57:56;;;;;;;1.50;0.50;;;;;;;19.85;40.56;98909.42;1590180;90;28212;-63
2022/09/02 12:00:37;;;;;;;0.90;0.60;;;;;;;20.23;40.74;98906.92;1613193;86;26047;-62
2022/09/02 12:03:15;;;;;;;1.25;0.68;;;;;;;20.29;39.62;98900.64;1667498;85;25458;-62
2022/09/02 12:05:44;;;;;;;1.42;0.53;;;;;;;21.00;39.24;98901.25;1666317;86;25736;-63
2022/09/02 12:08:35;;;;;;;0.40;0.30;;;;;;;21.25;37.64;98895.77;1666984;86;25719;-63
2022/09/02 12:11:06;;;;;;;1.37;0.50;;;;;;;21.17;36.80;98888.73;1666376;86;27305;-62